Time;durP1;ratioP1;P1;durP2;ratioP2;P2;SDS_P1;SDS_P2;PMS_P1;PMS_P2;Temp;Humidity;BMP_temperature;BMP_pressure;BME280_temperature;BME280_humidity;BME280_pressure;Samples;Min_cycle;Max_cycle;Signal;HPM_P1;HPM_P2
2022/06/13 00:00:29;;;;;;;11.57;5.35;;;;;;;18.29;83.88;99225.84;8533546;27;20054;-75
2022/06/13 00:04:38;;;;;;;7.60;4.72;;;;;;;18.30;83.74;99224.66;8461405;27;20063;-75
2022/06/13 00:08:39;;;;;;;8.85;5.55;;;;;;;18.27;83.56;99222.66;8506809;27;20047;-75
2022/06/13 00:12:41;;;;;;;6.82;4.50;;;;;;;18.19;84.49;99259.94;8532845;27;20039;-75
2022/06/13 00:16:45;;;;;;;12.57;6.30;;;;;;;17.98;86.35;99260.25;8510732;27;20047;-74
2022/06/13 00:20:46;;;;;;;14.05;5.55;;;;;;;17.99;87.55;99283.69;8513858;27;20054;-75
2022/06/13 00:24:47;;;;;;;11.60;5.30;;;;;;;18.00;87.90;99285.28;8474896;27;20130;-74
2022/06/13 00:28:51;;;;;;;9.52;3.53;;;;;;;17.93;85.90;99274.16;8523425;27;20054;-74
2022/06/13 00:32:52;;;;;;;7.15;3.20;;;;;;;17.91;85.81;99273.75;8523767;27;20487;-74
2022/06/13 00:36:53;;;;;;;10.80;3.97;;;;;;;17.87;85.21;99270.13;8473172;27;20054;-74
2022/06/13 00:40:54;;;;;;;11.43;4.57;;;;;;;17.81;85.09;99222.38;8532746;27;20133;-75
2022/06/13 00:45:10;;;;;;;8.20;3.33;;;;;;;17.81;85.44;99227.84;8507290;27;20199;-75
2022/06/13 00:49:22;;;;;;;5.50;3.30;;;;;;;17.73;85.56;99182.38;8510432;27;20585;-74
2022/06/13 00:53:27;;;;;;;10.35;3.72;;;;;;;17.52;85.97;99176.34;8530893;27;20050;-75
2022/06/13 00:57:29;;;;;;;8.07;3.90;;;;;;;17.43;86.07;99170.28;8496178;27;20043;-74
2022/06/13 01:06:53;;;;;;;9.45;3.90;;;;;;;17.20;86.95;99159.97;8516466;27;20046;-74
2022/06/13 01:11:18;;;;;;;9.55;4.20;;;;;;;17.18;87.09;99151.34;8517240;27;20035;-74
2022/06/13 01:15:25;;;;;;;6.60;4.22;;;;;;;17.14;86.60;99139.53;8531979;27;20058;-74
2022/06/13 01:20:23;;;;;;;8.60;4.15;;;;;;;17.10;87.27;99138.66;8499660;27;20058;-74
2022/06/13 01:24:47;;;;;;;9.05;3.80;;;;;;;17.11;86.87;99118.44;8318602;28;20479;-74
2022/06/13 01:28:59;;;;;;;4.47;4.07;;;;;;;17.05;86.99;99119.81;8300888;28;20045;-74
2022/06/13 01:33:03;;;;;;;7.65;4.35;;;;;;;17.03;86.85;99111.19;8325618;28;20423;-74
2022/06/13 01:37:14;;;;;;;10.23;4.13;;;;;;;16.97;87.33;99100.91;8287662;28;20061;-75
2022/06/13 01:41:52;;;;;;;7.47;4.15;;;;;;;16.93;87.23;99098.06;8291996;28;20046;-74
2022/06/13 01:46:21;;;;;;;6.30;3.95;;;;;;;16.87;87.27;99102.19;8282797;28;20416;-74
2022/06/13 01:50:32;;;;;;;10.52;3.80;;;;;;;16.84;86.85;99097.44;8258732;28;20100;-75
2022/06/13 01:54:47;;;;;;;9.52;4.95;;;;;;;16.74;87.33;99103.41;8372570;27;20126;-74
2022/06/13 01:58:56;;;;;;;6.90;4.45;;;;;;;16.75;87.64;99099.56;8443717;28;20098;-74
2022/06/13 02:03:13;;;;;;;6.60;4.10;;;;;;;16.77;87.54;99097.25;8487865;27;20677;-73
2022/06/13 02:07:20;;;;;;;9.50;4.50;;;;;;;16.74;87.47;99092.50;8485829;27;20051;-75
2022/06/13 02:11:25;;;;;;;10.30;4.47;;;;;;;16.79;87.19;99089.53;8474611;28;20711;-74
2022/06/13 02:15:36;;;;;;;11.07;4.40;;;;;;;16.80;87.04;99091.13;8510627;27;20039;-75
2022/06/13 02:19:40;;;;;;;8.98;5.05;;;;;;;16.81;87.28;99098.16;8512109;27;20050;-75
2022/06/13 02:23:49;;;;;;;10.40;5.60;;;;;;;16.81;87.96;99098.16;8517697;27;20050;-75
2022/06/13 02:27:58;;;;;;;8.00;5.28;;;;;;;16.88;87.94;99099.13;8470800;27;20503;-75
2022/06/13 02:32:08;;;;;;;8.25;5.97;;;;;;;16.93;87.99;99095.34;8514844;27;20051;-74
2022/06/13 02:36:26;;;;;;;8.38;6.32;;;;;;;16.95;88.33;99103.97;8505255;27;20492;-75
2022/06/13 02:40:45;;;;;;;9.25;6.63;;;;;;;16.96;88.56;99105.56;8511744;27;20047;-74
2022/06/13 02:44:51;;;;;;;10.27;6.45;;;;;;;16.95;88.32;99109.44;8520603;27;20093;-74
2022/06/13 02:49:29;;;;;;;7.20;5.78;;;;;;;16.92;88.79;99115.56;8514884;27;20039;-75
2022/06/13 02:53:43;;;;;;;9.90;6.05;;;;;;;16.91;88.87;99114.00;8525179;27;20050;-74
2022/06/13 02:57:50;;;;;;;9.93;6.53;;;;;;;16.90;88.84;99090.59;8503487;27;20050;-74
2022/06/13 03:01:52;;;;;;;8.02;5.70;;;;;;;16.94;88.47;99102.38;8512953;27;20055;-74
2022/06/13 03:06:02;;;;;;;7.95;6.40;;;;;;;16.97;88.62;99109.88;8474293;27;20125;-74
2022/06/13 03:10:17;;;;;;;11.43;6.25;;;;;;;17.02;89.97;99109.63;8507225;27;20050;-74
2022/06/13 03:14:32;;;;;;;9.27;5.65;;;;;;;16.89;91.44;99127.19;8482718;27;20043;-74
2022/06/13 03:18:39;;;;;;;9.15;5.97;;;;;;;16.80;91.62;99118.38;8482326;27;20092;-74
2022/06/13 03:22:45;;;;;;;7.63;5.80;;;;;;;16.74;91.96;99120.56;8499392;27;20062;-74
2022/06/13 03:26:53;;;;;;;11.75;5.95;;;;;;;16.71;92.27;99147.72;8533761;27;20041;-75
2022/06/13 03:31:37;;;;;;;12.40;6.63;;;;;;;16.67;93.42;99141.38;8509320;27;20045;-74
2022/06/13 03:35:40;;;;;;;9.43;6.38;;;;;;;16.66;93.44;99134.34;8365529;28;20048;-73
2022/06/13 03:39:46;;;;;;;11.63;7.10;;;;;;;16.66;94.48;99150.72;8379988;28;20124;-74
2022/06/13 03:43:57;;;;;;;12.27;7.35;;;;;;;16.69;95.11;99160.94;8403991;28;20055;-74
2022/06/13 03:48:14;;;;;;;14.68;8.43;;;;;;;16.67;95.72;99142.19;8394545;28;20130;-75
2022/06/13 03:52:16;;;;;;;15.00;10.30;;;;;;;16.71;95.70;99136.81;8348395;28;20657;-73
2022/06/13 03:56:37;;;;;;;12.52;9.73;;;;;;;16.74;95.61;99141.59;8320226;28;20056;-74
2022/06/13 04:01:01;;;;;;;16.80;9.82;;;;;;;16.79;95.00;99149.53;8345493;28;20053;-74
2022/06/13 04:05:03;;;;;;;16.67;9.38;;;;;;;16.78;94.13;99131.56;8359359;28;20053;-74
2022/06/13 04:09:10;;;;;;;14.88;10.45;;;;;;;16.79;94.40;99138.63;8360982;28;20053;-73
2022/06/13 04:13:29;;;;;;;17.85;9.95;;;;;;;16.82;93.40;99121.53;8455240;27;20084;-74
2022/06/13 04:18:07;;;;;;;14.52;10.30;;;;;;;16.81;93.33;99109.06;8458019;27;20063;-74
2022/06/13 04:22:23;;;;;;;15.63;10.50;;;;;;;16.83;92.73;99112.22;8491028;27;20035;-74
2022/06/13 04:26:48;;;;;;;14.48;10.30;;;;;;;16.85;92.94;99109.94;8532034;27;20099;-74
2022/06/13 04:30:50;;;;;;;15.98;10.70;;;;;;;16.86;93.18;99095.19;8522429;27;20053;-74
2022/06/13 04:34:52;;;;;;;15.68;9.35;;;;;;;16.86;93.45;99095.19;8484673;27;20049;-73
2022/06/13 04:38:56;;;;;;;13.88;8.82;;;;;;;16.95;93.42;99109.44;8513219;27;20042;-73
2022/06/13 04:42:57;;;;;;;16.90;9.70;;;;;;;17.05;92.79;99108.91;8509247;27;20050;-73
2022/06/13 04:46:58;;;;;;;14.80;9.65;;;;;;;17.14;93.26;99100.53;8495019;27;20042;-73
2022/06/13 04:51:05;;;;;;;17.27;9.63;;;;;;;17.19;93.25;99101.06;8493252;27;20444;-73
2022/06/13 04:55:10;;;;;;;14.35;9.77;;;;;;;17.24;93.03;99084.44;8480795;27;20411;-74
2022/06/13 04:59:14;;;;;;;12.48;9.57;;;;;;;17.29;93.04;99086.88;8516461;27;20046;-74
2022/06/13 05:03:29;;;;;;;13.02;9.68;;;;;;;17.30;93.23;99088.47;8516665;27;20066;-74
2022/06/13 05:07:33;;;;;;;20.83;10.55;;;;;;;17.42;92.73;99089.53;8457298;27;20035;-74
2022/06/13 05:11:56;;;;;;;20.05;9.48;;;;;;;17.50;92.58;99085.84;8502113;27;20163;-74
2022/06/13 05:16:09;;;;;;;18.02;10.10;;;;;;;17.48;93.09;99082.66;8511430;27;20061;-74
2022/06/13 05:20:37;;;;;;;15.05;9.80;;;;;;;17.56;92.51;99084.38;8405769;28;20045;-74
2022/06/13 05:25:03;;;;;;;14.15;9.35;;;;;;;17.69;92.16;99077.72;8352567;28;20066;-74
2022/06/13 05:29:04;;;;;;;15.73;10.65;;;;;;;17.79;91.59;99077.16;8404309;28;20040;-73
2022/06/13 05:33:05;;;;;;;13.80;9.85;;;;;;;17.92;91.16;99080.56;8392465;28;20194;-73
2022/06/13 05:37:06;;;;;;;16.30;9.05;;;;;;;17.96;91.03;99086.91;8378079;28;20080;-74
2022/06/13 05:41:08;;;;;;;13.50;8.70;;;;;;;17.98;91.50;99107.22;8393158;28;20483;-73
2022/06/13 05:45:16;;;;;;;13.82;8.50;;;;;;;18.08;91.21;99106.66;8372361;28;20412;-73
2022/06/13 05:49:17;;;;;;;14.33;8.70;;;;;;;18.22;90.35;99114.38;8401811;28;20052;-74
2022/06/13 05:53:20;;;;;;;10.65;7.78;;;;;;;18.28;90.02;99109.44;8456689;28;20764;-74
2022/06/13 05:57:21;;;;;;;15.82;7.32;;;;;;;18.32;89.22;99110.28;8458415;28;20076;-74
2022/06/13 06:01:22;;;;;;;12.70;6.50;;;;;;;18.28;88.62;99115.69;8457991;28;20054;-73
2022/06/13 06:05:23;;;;;;;11.75;6.80;;;;;;;18.36;88.56;99111.13;8457909;28;20035;-74
2022/06/13 06:09:24;;;;;;;12.20;6.72;;;;;;;18.32;88.17;99110.28;8453587;28;20491;-74
2022/06/13 06:13:27;;;;;;;10.15;6.40;;;;;;;18.19;89.18;99106.88;8458469;28;20386;-73
2022/06/13 06:17:28;;;;;;;11.70;6.78;;;;;;;18.12;89.52;99099.34;8459313;28;20047;-73
2022/06/13 06:21:29;;;;;;;9.43;6.32;;;;;;;18.04;90.07;99083.94;8506293;27;20058;-74
2022/06/13 06:25:31;;;;;;;11.98;6.25;;;;;;;18.02;89.99;99086.25;8527066;27;20412;-74
2022/06/13 06:29:32;;;;;;;10.60;6.43;;;;;;;17.92;90.49;99081.38;8469131;27;20054;-74
2022/06/13 06:33:33;;;;;;;11.88;6.18;;;;;;;18.01;89.56;99090.13;8518176;27;20074;-73
2022/06/13 06:37:38;;;;;;;11.38;6.32;;;;;;;18.18;88.94;99104.53;8519651;27;20365;-73
2022/06/13 06:41:38;;;;;;;7.68;5.70;;;;;;;18.30;88.26;99107.09;8535583;27;20112;-73
2022/06/13 06:45:41;;;;;;;11.18;5.85;;;;;;;18.45;86.83;99087.91;8496831;27;20492;-74
2022/06/13 06:49:42;;;;;;;16.83;6.65;;;;;;;18.48;86.54;99080.91;8531391;27;20050;-73
2022/06/13 07:23:25;;;;;;;9.13;4.28;;;;;;;19.21;82.37;99085.38;8468398;27;20112;-73
2022/06/13 07:43:33;;;;;;;7.38;5.40;;;;;;;19.15;83.56;99075.88;8458124;28;20515;-74
2022/06/13 07:47:34;;;;;;;12.98;5.15;;;;;;;19.22;82.97;99070.53;8447412;28;20055;-73
2022/06/13 07:51:35;;;;;;;8.13;4.75;;;;;;;19.41;81.53;99062.22;8439831;28;20127;-74
2022/06/13 07:55:37;;;;;;;9.75;4.70;;;;;;;19.59;81.51;99052.38;8463666;28;20043;-74
2022/06/13 07:59:40;;;;;;;8.43;4.35;;;;;;;19.57;79.84;99065.63;8459729;28;20061;-74
2022/06/13 08:03:41;;;;;;;14.00;4.47;;;;;;;19.51;80.17;99080.03;8464350;28;20776;-73
2022/06/13 08:07:42;;;;;;;7.28;4.10;;;;;;;19.57;80.87;99082.06;8460881;28;20040;-73
2022/06/13 08:11:47;;;;;;;13.00;4.65;;;;;;;19.57;80.66;99082.06;8453813;28;20044;-74
2022/06/13 08:15:50;;;;;;;8.48;4.95;;;;;;;19.40;81.42;99088.06;8462294;28;20401;-73
2022/06/13 08:19:51;;;;;;;8.55;5.22;;;;;;;19.38;81.44;99095.84;8452558;28;20449;-74
2022/06/13 08:23:52;;;;;;;6.90;5.05;;;;;;;19.51;81.07;99089.00;8472779;27;20050;-73
2022/06/13 08:27:54;;;;;;;7.63;6.07;;;;;;;19.74;79.98;99089.75;8477213;27;20047;-73
2022/06/13 08:31:55;;;;;;;12.68;7.30;;;;;;;19.78;80.15;99082.38;8512376;27;20042;-73
2022/06/13 08:35:57;;;;;;;16.48;9.05;;;;;;;19.89;78.65;99087.22;8529245;27;20078;-73
2022/06/13 08:39:58;;;;;;;17.83;9.95;;;;;;;19.75;79.70;99099.56;8528538;27;20043;-73
2022/06/13 08:44:26;;;;;;;18.52;11.48;;;;;;;19.59;80.25;99101.69;8512149;27;20069;-73
2022/06/13 08:48:36;;;;;;;18.27;13.50;;;;;;;19.57;79.96;99114.94;8527880;27;20062;-74
2022/06/13 08:52:49;;;;;;;22.45;13.50;;;;;;;19.57;81.39;99114.94;8503432;27;20050;-73
2022/06/13 08:56:51;;;;;;;23.92;14.27;;;;;;;19.50;80.05;99125.81;8497735;27;20043;-73
2022/06/13 09:00:56;;;;;;;21.75;13.77;;;;;;;19.54;80.47;99125.84;8469424;27;20055;-73
2022/06/13 09:05:03;;;;;;;25.30;13.98;;;;;;;19.37;80.64;99132.59;8504922;27;20069;-73
2022/06/13 09:09:27;;;;;;;19.70;14.80;;;;;;;19.10;80.81;99129.00;8514517;27;20054;-74
2022/06/13 09:13:45;;;;;;;21.90;14.05;;;;;;;18.97;80.79;99125.66;8532061;27;20054;-73
2022/06/13 09:17:53;;;;;;;23.33;13.48;;;;;;;18.83;81.58;99152.75;8530623;27;20089;-73
2022/06/13 09:22:07;;;;;;;17.80;11.53;;;;;;;18.71;81.93;99183.00;8531826;27;20093;-73
2022/06/13 09:26:18;;;;;;;17.90;10.18;;;;;;;18.48;81.60;99203.97;8426525;28;20047;-73
2022/06/13 09:30:33;;;;;;;18.80;10.52;;;;;;;18.17;83.62;99223.22;8458890;28;20097;-73
2022/06/13 09:34:44;;;;;;;21.50;10.38;;;;;;;17.76;86.26;99247.22;8439046;28;20448;-73
2022/06/13 09:38:49;;;;;;;19.17;9.80;;;;;;;17.35;88.28;99253.94;8424721;28;20051;-73
2022/06/13 09:43:04;;;;;;;17.55;9.15;;;;;;;16.96;89.64;99258.34;8441740;28;20043;-73
2022/06/13 09:47:14;;;;;;;16.52;8.00;;;;;;;16.76;90.12;99270.22;8441394;28;20501;-73
2022/06/13 09:51:15;;;;;;;18.98;8.60;;;;;;;16.66;90.19;99273.41;8458441;28;20039;-74
2022/06/13 09:55:34;;;;;;;17.05;7.47;;;;;;;16.61;90.27;99268.19;8467569;27;20511;-74
2022/06/13 09:59:41;;;;;;;19.17;8.32;;;;;;;16.61;89.63;99273.66;8531000;27;20046;-74
2022/06/13 10:04:05;;;;;;;16.63;7.05;;;;;;;16.60;89.94;99283.00;8530810;27;20412;-74
2022/06/13 10:08:28;;;;;;;16.20;6.70;;;;;;;16.53;89.34;99283.53;8530569;27;20060;-74
2022/06/13 10:12:51;;;;;;;16.27;7.93;;;;;;;16.57;89.17;99278.19;8529826;27;20061;-74
2022/06/13 10:17:04;;;;;;;14.23;7.20;;;;;;;16.53;89.40;99282.72;8476718;27;20103;-74
2022/06/13 10:21:20;;;;;;;12.57;6.70;;;;;;;16.59;89.29;99282.19;8530308;27;20049;-74
2022/06/13 10:25:45;;;;;;;14.70;6.95;;;;;;;16.65;89.27;99280.03;8530350;27;20058;-74
2022/06/13 10:30:27;;;;;;;14.35;7.80;;;;;;;16.77;89.00;99282.69;8514320;27;20047;-74
2022/06/13 10:34:50;;;;;;;20.00;8.30;;;;;;;16.78;88.81;99257.03;8390176;28;20112;-75
2022/06/13 10:38:59;;;;;;;14.27;7.45;;;;;;;16.89;88.64;99266.31;8376698;28;20052;-75
2022/06/13 10:43:01;;;;;;;18.52;7.07;;;;;;;16.92;88.57;99268.34;8372693;28;20135;-74
2022/06/13 10:47:07;;;;;;;13.77;7.60;;;;;;;16.85;88.95;99262.69;8373448;28;20542;-74
2022/06/13 10:51:08;;;;;;;16.17;7.32;;;;;;;16.95;88.50;99245.84;8324067;28;20048;-75
2022/06/13 10:55:11;;;;;;;15.85;7.50;;;;;;;17.07;87.98;99245.78;8390323;28;20465;-74
2022/06/13 10:59:30;;;;;;;18.85;8.82;;;;;;;17.17;88.13;99248.00;8354677;28;20057;-73
2022/06/13 11:03:31;;;;;;;16.33;8.95;;;;;;;17.42;87.40;99247.88;8350536;28;20594;-74
2022/06/13 11:07:44;;;;;;;11.43;7.05;;;;;;;17.45;86.99;99241.72;8390176;28;20221;-74
2022/06/13 11:11:45;;;;;;;18.90;7.65;;;;;;;17.55;86.97;99252.13;8472318;27;20051;-74
2022/06/13 11:24:58;;;;;;;18.10;9.00;;;;;;;18.45;84.46;99245.72;8534177;27;20062;-74
2022/06/13 11:29:02;;;;;;;16.15;8.82;;;;;;;18.37;85.52;99254.91;8535402;27;20451;-74
2022/06/13 11:33:03;;;;;;;13.65;8.25;;;;;;;18.28;86.65;99251.56;8502443;27;20041;-73
2022/06/13 11:37:14;;;;;;;17.95;7.60;;;;;;;18.04;87.64;99266.22;8535239;27;20042;-73
2022/06/13 11:41:40;;;;;;;15.00;7.93;;;;;;;17.89;88.07;99261.56;8533902;27;20065;-73
2022/06/13 11:45:41;;;;;;;22.10;7.82;;;;;;;17.74;88.04;99257.72;8385947;28;20090;-74
2022/06/13 11:49:44;;;;;;;16.58;8.40;;;;;;;17.65;88.87;99257.88;8364636;28;20063;-74
2022/06/13 11:53:46;;;;;;;18.33;8.32;;;;;;;17.65;88.80;99246.16;8378526;28;20127;-74
2022/06/13 11:57:56;;;;;;;16.75;8.60;;;;;;;17.87;88.29;99248.25;8378280;28;20127;-74
2022/06/13 12:01:57;;;;;;;16.30;8.43;;;;;;;18.25;87.39;99258.53;8394810;28;20164;-73
2022/06/13 12:06:10;;;;;;;19.65;8.60;;;;;;;18.82;86.19;99241.44;8394544;28;20036;-74
2022/06/13 12:10:20;;;;;;;18.10;8.57;;;;;;;19.71;83.84;99235.72;8394301;28;20056;-73
2022/06/13 12:14:21;;;;;;;14.70;6.10;;;;;;;19.92;79.13;99237.22;8394125;28;20048;-74
2022/06/13 12:18:25;;;;;;;9.88;5.38;;;;;;;19.79;76.25;99226.44;8369768;28;20465;-74
2022/06/13 12:22:35;;;;;;;12.80;4.63;;;;;;;19.61;77.14;99247.31;8473444;27;20053;-74
2022/06/13 12:26:39;;;;;;;14.13;4.40;;;;;;;19.51;76.43;99247.88;8513748;27;20050;-74
2022/06/13 12:31:07;;;;;;;12.38;5.15;;;;;;;19.69;76.14;99257.22;8427058;28;20423;-73
2022/06/13 12:35:21;;;;;;;19.10;4.32;;;;;;;19.96;75.27;99251.78;8426541;28;20591;-74
2022/06/13 12:39:22;;;;;;;13.10;4.00;;;;;;;19.67;74.96;99261.50;8426988;28;20409;-73
2022/06/13 12:43:39;;;;;;;11.05;3.83;;;;;;;19.19;75.97;99262.91;8427019;28;20050;-73
2022/06/13 12:48:09;;;;;;;10.50;4.15;;;;;;;18.84;77.45;99266.50;8426800;28;20498;-74
2022/06/13 12:52:15;;;;;;;11.88;4.35;;;;;;;18.54;80.12;99263.53;8426777;28;20070;-73
2022/06/13 12:56:42;;;;;;;8.82;4.35;;;;;;;18.33;81.87;99281.38;8426726;28;20063;-74
2022/06/13 13:00:52;;;;;;;10.30;4.13;;;;;;;18.27;82.13;99277.31;8409194;28;20053;-74
2022/06/13 13:05:36;;;;;;;11.52;4.30;;;;;;;18.28;82.85;99278.91;8392610;28;20075;-73
2022/06/13 13:09:40;;;;;;;12.55;4.28;;;;;;;18.28;81.96;99257.03;8408415;28;20048;-74
2022/06/13 13:13:54;;;;;;;16.33;3.92;;;;;;;18.45;80.90;99254.69;8424020;28;20048;-74
2022/06/13 13:18:08;;;;;;;11.57;4.03;;;;;;;18.90;79.38;99251.41;8425856;28;20475;-74
2022/06/13 13:22:12;;;;;;;15.88;3.97;;;;;;;19.26;76.89;99247.41;8408652;28;20055;-74
2022/06/13 13:26:18;;;;;;;10.07;3.40;;;;;;;19.55;74.08;99248.75;8419547;28;20118;-74
2022/06/13 13:30:33;;;;;;;18.52;3.38;;;;;;;19.95;72.59;99233.75;8420016;28;20040;-74
2022/06/13 13:34:36;;;;;;;12.23;3.10;;;;;;;20.44;72.04;99240.00;8369181;28;20697;-74
2022/06/13 13:38:45;;;;;;;7.70;2.60;;;;;;;21.63;64.66;99243.75;8406459;28;20067;-74
2022/06/13 13:42:59;;;;;;;10.73;2.72;;;;;;;21.89;61.32;99229.81;8387473;28;20113;-73
2022/06/13 13:47:24;;;;;;;6.82;2.78;;;;;;;24.38;56.81;99233.03;8504314;27;20042;-73
2022/06/13 13:51:33;;;;;;;9.13;2.50;;;;;;;25.59;50.37;99227.78;8530983;27;20047;-73
2022/06/13 13:55:39;;;;;;;;;;;;;;;26.31;47.64;99228.78;8527438;27;20043;-74
2022/06/13 13:59:43;;;;;;;9.13;2.53;;;;;;;27.30;47.36;99221.25;8493232;27;20009;-73
2022/06/13 14:04:35;;;;;;;5.47;2.10;;;;;;;27.02;46.41;99216.88;8496857;27;20058;-74
2022/06/13 14:08:37;;;;;;;9.52;2.60;;;;;;;27.51;42.50;99220.19;8357136;28;20052;-74
2022/06/13 14:13:07;;;;;;;9.65;2.60;;;;;;;27.16;44.10;99222.25;8357707;28;20041;-74
2022/06/13 14:17:08;;;;;;;11.38;2.90;;;;;;;25.96;45.84;99229.09;8315368;28;20122;-74
2022/06/13 14:21:12;;;;;;;8.68;2.33;;;;;;;26.12;46.73;99215.47;8335896;28;20555;-73
2022/06/13 14:25:15;;;;;;;8.10;2.22;;;;;;;25.20;45.44;99221.69;8356984;28;20076;-73
2022/06/13 14:29:28;;;;;;;8.68;3.00;;;;;;;26.02;44.58;99216.38;8334631;28;20540;-73
2022/06/13 14:38:23;;;;;;;7.10;2.22;;;;;;;28.46;39.71;99217.78;8262128;28;20065;-74
2022/06/13 14:42:35;;;;;;;7.32;2.17;;;;;;;29.22;37.67;99216.63;8210280;28;20464;-74
2022/06/13 14:46:43;;;;;;;9.77;2.28;;;;;;;30.16;34.22;99213.97;8391810;28;20442;-74
2022/06/13 14:50:47;;;;;;;4.78;1.90;;;;;;;27.81;38.40;99216.56;8369843;28;20055;-74
2022/06/13 14:55:02;;;;;;;8.60;1.75;;;;;;;25.85;42.22;99222.84;8395784;28;20045;-74
2022/06/13 14:59:10;;;;;;;6.85;1.90;;;;;;;24.71;41.41;99220.72;8377249;28;20054;-74
2022/06/13 15:03:12;;;;;;;6.88;1.77;;;;;;;24.65;43.06;99230.59;8372290;28;20055;-74
2022/06/13 15:07:18;;;;;;;6.70;1.85;;;;;;;24.51;41.74;99241.69;8414440;28;20073;-74
2022/06/13 15:11:20;;;;;;;8.73;1.83;;;;;;;23.69;44.95;99240.94;8395559;28;20463;-74
2022/06/13 15:15:32;;;;;;;13.32;1.80;;;;;;;23.07;41.62;99249.44;8398848;28;20048;-74
2022/06/13 15:19:37;;;;;;;11.07;2.00;;;;;;;23.13;42.27;99253.41;8445510;28;20051;-74
2022/06/13 15:23:41;;;;;;;6.95;1.92;;;;;;;23.01;43.54;99248.25;8456648;27;20416;-74
2022/06/13 15:27:57;;;;;;;12.55;2.10;;;;;;;22.84;45.10;99246.19;8496742;27;20560;-74
2022/06/13 15:32:27;;;;;;;10.38;2.50;;;;;;;22.73;43.25;99250.88;8518527;27;20035;-74
2022/06/13 15:36:29;;;;;;;10.15;1.92;;;;;;;22.48;41.81;99255.41;8492758;27;20415;-74
2022/06/13 15:40:34;;;;;;;8.85;1.77;;;;;;;22.41;42.10;99271.91;8508159;27;20051;-74
2022/06/13 15:44:37;;;;;;;6.82;1.80;;;;;;;22.32;42.82;99264.75;8470991;27;20500;-73
2022/06/13 15:48:43;;;;;;;4.95;1.70;;;;;;;22.21;44.61;99268.59;8429156;28;20078;-74
2022/06/13 15:52:44;;;;;;;10.18;2.08;;;;;;;21.95;42.70;99272.34;8419789;28;20043;-75
2022/06/13 15:57:06;;;;;;;7.03;1.90;;;;;;;21.77;43.50;99282.38;8449944;28;20422;-74
2022/06/13 16:01:09;;;;;;;9.70;2.00;;;;;;;21.45;42.35;99271.88;8449215;28;20036;-74
2022/06/13 16:05:23;;;;;;;8.35;1.83;;;;;;;21.29;42.27;99285.03;8446313;28;20075;-74
2022/06/13 16:09:28;;;;;;;9.70;1.80;;;;;;;21.42;42.30;99291.84;8426378;28;20040;-74
2022/06/13 16:13:36;;;;;;;5.57;2.03;;;;;;;21.68;43.62;99290.16;8446588;28;20092;-74
2022/06/13 16:17:42;;;;;;;6.32;1.90;;;;;;;21.86;42.14;99296.59;8429132;27;20046;-74
2022/06/13 16:21:43;;;;;;;11.07;2.17;;;;;;;21.84;42.36;99309.91;8506302;27;20776;-74
2022/06/13 16:25:45;;;;;;;7.88;1.92;;;;;;;21.67;40.62;99299.56;8453432;27;20420;-74
2022/06/13 16:29:52;;;;;;;9.88;2.42;;;;;;;21.41;39.05;99293.00;8507480;27;20043;-74
2022/06/13 16:33:56;;;;;;;7.55;2.05;;;;;;;21.28;40.07;99305.41;8502781;27;20050;-74
2022/06/13 16:38:04;;;;;;;6.40;1.90;;;;;;;22.11;39.02;99308.63;8518186;27;20050;-73
2022/06/13 16:42:25;;;;;;;6.85;1.98;;;;;;;22.96;38.24;99311.16;8522010;27;20416;-73
2022/06/13 16:46:28;;;;;;;6.78;1.65;;;;;;;25.00;33.59;99317.34;8526824;27;20039;-73
2022/06/13 16:50:29;;;;;;;8.85;2.10;;;;;;;25.95;32.57;99303.00;8503485;27;20047;-73
2022/06/13 16:54:36;;;;;;;7.05;1.88;;;;;;;26.94;31.45;99304.09;8505359;27;20401;-73
2022/06/13 16:58:48;;;;;;;8.70;2.13;;;;;;;25.11;34.23;99307.81;8439837;28;20099;-73
2022/06/13 17:03:07;;;;;;;10.20;1.80;;;;;;;23.23;36.68;99311.69;8435275;28;20452;-73
2022/06/13 17:07:19;;;;;;;12.13;2.45;;;;;;;22.13;39.10;99316.50;8446456;28;20100;-73
2022/06/13 17:11:20;;;;;;;4.88;1.80;;;;;;;21.31;40.89;99326.63;8448272;28;20048;-73
2022/06/13 17:15:21;;;;;;;6.88;1.80;;;;;;;20.79;42.11;99321.22;8457754;28;20405;-73
2022/06/13 17:19:22;;;;;;;5.88;1.60;;;;;;;20.51;43.56;99327.91;8450736;28;20055;-74
2022/06/13 17:23:27;;;;;;;6.65;2.03;;;;;;;20.22;44.23;99328.56;8415732;28;20525;-73
2022/06/13 17:32:11;;;;;;;7.47;2.30;;;;;;;19.67;46.12;99344.44;8404971;28;20058;-73
2022/06/13 17:36:12;;;;;;;10.30;1.88;;;;;;;19.48;46.24;99341.75;8442484;27;20057;-73
2022/06/13 17:40:13;;;;;;;8.90;2.25;;;;;;;19.37;46.50;99357.94;8480956;27;20058;-73
2022/06/13 17:44:14;;;;;;;6.85;2.10;;;;;;;19.21;46.81;99353.69;8474539;27;20467;-73
2022/06/13 17:48:15;;;;;;;9.50;2.13;;;;;;;19.15;48.15;99355.13;8474302;27;20052;-73
2022/06/13 17:52:19;;;;;;;8.10;1.90;;;;;;;19.01;50.04;99360.28;8478129;27;20403;-74
2022/06/13 17:56:20;;;;;;;10.73;2.22;;;;;;;18.85;49.60;99363.06;8501992;27;20062;-73
2022/06/13 18:00:24;;;;;;;10.10;2.15;;;;;;;18.63;52.26;99367.28;8492960;27;20165;-74
2022/06/13 18:04:25;;;;;;;10.48;2.20;;;;;;;18.43;52.93;99368.31;8515366;27;20047;-73
2022/06/13 18:08:32;;;;;;;11.55;2.35;;;;;;;18.29;54.73;99376.19;8511442;27;20050;-73
2022/06/13 18:12:33;;;;;;;5.40;2.00;;;;;;;18.17;55.99;99392.66;8526735;27;20388;-74
2022/06/13 18:16:34;;;;;;;7.68;2.42;;;;;;;18.05;53.70;99391.59;8509937;27;20043;-73
2022/06/13 18:20:36;;;;;;;13.35;2.80;;;;;;;17.95;54.95;99400.31;8470512;27;20106;-73
2022/06/13 18:24:37;;;;;;;9.63;2.30;;;;;;;17.93;54.98;99405.31;8509419;27;20062;-73
2022/06/13 18:28:38;;;;;;;7.90;2.33;;;;;;;17.83;55.26;99405.84;8497923;27;20054;-73
2022/06/13 18:32:40;;;;;;;8.90;2.20;;;;;;;17.76;55.23;99411.13;8517778;27;20579;-73
2022/06/13 18:36:41;;;;;;;6.95;2.22;;;;;;;17.71;53.54;99420.34;8452026;27;20497;-73
2022/06/13 18:40:43;;;;;;;5.65;2.42;;;;;;;17.60;54.77;99418.47;8509118;27;20093;-73
2022/06/13 18:44:45;;;;;;;12.13;2.33;;;;;;;17.41;55.51;99431.91;8502003;27;20047;-73
2022/06/13 18:48:47;;;;;;;13.38;2.20;;;;;;;17.20;57.11;99438.34;8521259;27;20130;-73
2022/06/13 18:52:48;;;;;;;7.97;2.40;;;;;;;17.05;58.62;99446.44;8500504;27;20484;-74
2022/06/13 18:56:50;;;;;;;6.70;2.28;;;;;;;16.87;59.95;99451.34;8492228;27;20157;-74
2022/06/13 19:00:51;;;;;;;11.57;2.55;;;;;;;16.70;61.28;99451.59;8525529;27;20094;-74
2022/06/13 19:04:53;;;;;;;8.88;2.20;;;;;;;16.54;62.62;99464.25;8508490;27;20528;-74
2022/06/13 19:08:55;;;;;;;5.10;2.03;;;;;;;16.40;63.82;99470.81;8458657;28;20043;-73
2022/06/13 19:12:57;;;;;;;11.43;2.17;;;;;;;16.23;64.88;99465.56;8447011;28;20413;-72
2022/06/13 19:17:00;;;;;;;6.57;2.28;;;;;;;16.10;64.76;99474.84;8462880;28;20476;-72
2022/06/13 19:21:01;;;;;;;14.23;3.15;;;;;;;15.85;65.32;99481.34;8437357;28;20106;-73
2022/06/13 19:25:03;;;;;;;17.92;3.42;;;;;;;15.69;66.14;99488.53;8452095;28;20086;-73
2022/06/13 19:29:13;;;;;;;16.17;2.53;;;;;;;15.48;67.15;99489.28;8448853;28;20036;-73
2022/06/13 19:33:16;;;;;;;5.80;2.25;;;;;;;15.33;67.33;99503.50;8452823;28;20162;-73
2022/06/13 19:37:18;;;;;;;10.65;2.60;;;;;;;15.22;67.80;99507.72;8421293;27;20048;-73
2022/06/13 19:41:20;;;;;;;12.27;2.67;;;;;;;15.09;68.28;99509.53;8500830;27;20469;-73
2022/06/13 19:45:22;;;;;;;7.25;2.20;;;;;;;14.98;68.81;99512.97;8525968;27;20043;-73
2022/06/13 19:49:24;;;;;;;14.45;2.95;;;;;;;14.82;69.01;99514.63;8524880;27;20047;-73
2022/06/13 19:53:26;;;;;;;10.02;3.20;;;;;;;14.67;69.42;99514.06;8523332;27;20050;-73
2022/06/13 19:57:28;;;;;;;11.57;2.55;;;;;;;14.54;69.83;99520.47;8522575;27;20054;-72
2022/06/13 20:01:31;;;;;;;8.15;2.55;;;;;;;14.44;70.23;99520.84;8524285;27;20126;-72
2022/06/13 20:09:59;;;;;;;11.00;2.40;;;;;;;14.18;71.23;99523.56;8355702;28;20052;-72
2022/06/13 20:14:07;;;;;;;10.00;2.67;;;;;;;14.01;71.45;99533.69;8372578;28;20040;-72
2022/06/13 20:18:14;;;;;;;11.98;2.45;;;;;;;13.89;71.66;99537.84;8353872;28;20044;-73
2022/06/13 20:22:15;;;;;;;12.02;3.25;;;;;;;13.74;71.82;99535.59;8332087;28;20044;-74
2022/06/13 20:26:18;;;;;;;15.23;2.67;;;;;;;13.60;72.06;99534.94;8385165;28;20070;-73
2022/06/13 20:30:20;;;;;;;8.25;2.72;;;;;;;13.48;71.96;99537.50;8350262;28;20067;-72
2022/06/13 20:34:29;;;;;;;13.50;3.05;;;;;;;13.36;72.38;99556.28;8373423;28;20476;-73